createdAt,value
2022-10-31T00:04:39.337Z,11.50
2022-10-31T00:14:42.615Z,11.40
2022-10-31T00:24:44.565Z,11.40
2022-10-31T00:34:47.946Z,11.20
2022-10-31T00:44:49.876Z,11.10
2022-10-31T00:54:53.148Z,11.10
2022-10-31T01:04:55.079Z,11.00
2022-10-31T01:14:58.346Z,11.10
2022-10-31T01:25:00.369Z,11.00
2022-10-31T01:35:03.997Z,11.00
2022-10-31T01:45:10.887Z,11.00
2022-10-31T01:55:18.365Z,10.80
2022-10-31T02:05:25.226Z,10.90
2022-10-31T02:15:30.852Z,11.00
2022-10-31T02:25:52.060Z,11.20
2022-10-31T02:36:05.153Z,11.20
2022-10-31T02:46:14.410Z,11.20
2022-10-31T02:56:20.197Z,11.10
2022-10-31T03:06:26.681Z,11.00
2022-10-31T03:16:37.895Z,11.10
2022-10-31T03:26:43.684Z,11.20
2022-10-31T03:36:49.009Z,11.20
2022-10-31T03:46:51.515Z,11.20
2022-10-31T03:56:58.142Z,11.40
2022-10-31T04:07:02.503Z,11.30
2022-10-31T04:17:10.526Z,11.10
2022-10-31T04:27:12.598Z,11.00
2022-10-31T04:37:15.883Z,10.80
2022-10-31T04:47:17.852Z,10.90
2022-10-31T04:57:21.201Z,10.80
2022-10-31T05:07:23.123Z,11.00
2022-10-31T05:17:28.772Z,11.00
2022-10-31T05:27:30.674Z,11.10
2022-10-31T05:37:33.904Z,11.20
2022-10-31T05:47:35.815Z,11.20
2022-10-31T05:57:39.081Z,11.10
2022-10-31T06:07:41.160Z,11.10
2022-10-31T06:17:44.465Z,11.10
2022-10-31T06:27:46.387Z,11.10
2022-10-31T06:37:54.374Z,11.20
2022-10-31T06:48:16.014Z,11.20
2022-10-31T06:58:20.363Z,11.10
2022-10-31T07:08:22.226Z,11.10
2022-10-31T07:18:25.592Z,11.20
2022-10-31T07:28:27.895Z,11.30
2022-10-31T07:38:31.213Z,11.20
2022-10-31T07:48:33.142Z,11.40
2022-10-31T07:58:36.489Z,11.60
2022-10-31T08:08:38.635Z,12.10
2022-10-31T08:18:41.950Z,12.50
2022-10-31T08:28:43.927Z,12.80
2022-10-31T08:38:47.950Z,13.20
2022-10-31T08:48:50.217Z,13.90
2022-10-31T08:58:54.153Z,16.20
2022-10-31T09:08:56.090Z,17.20
2022-10-31T09:18:59.389Z,18.30
2022-10-31T09:29:01.297Z,19.40
2022-10-31T09:39:04.869Z,19.70
2022-10-31T09:49:31.109Z,20.40
2022-10-31T09:59:37.090Z,19.00
2022-10-31T10:09:39.022Z,19.10
2022-10-31T10:20:03.124Z,18.30
2022-10-31T10:30:14.760Z,17.60
2022-10-31T10:40:21.246Z,16.90
2022-10-31T11:01:27.935Z,16.40
2022-10-31T11:11:30.977Z,16.50
2022-10-31T11:21:34.346Z,16.30
2022-10-31T11:31:36.509Z,16.30
2022-10-31T11:41:40.041Z,16.30
2022-10-31T11:51:42.136Z,16.60
2022-10-31T12:01:50.786Z,16.60
2022-10-31T12:12:12.706Z,16.60
2022-10-31T12:22:23.606Z,16.60
2022-10-31T12:32:38.357Z,16.50
2022-10-31T12:42:53.469Z,16.30
2022-10-31T12:53:07.525Z,16.30
2022-10-31T13:03:25.474Z,16.30
2022-10-31T13:13:33.208Z,16.30
2022-10-31T13:23:55.273Z,16.30
2022-10-31T13:34:01.570Z,16.40
2022-10-31T13:44:16.110Z,16.30
2022-10-31T13:54:23.953Z,16.30
2022-10-31T14:04:30.819Z,16.10
2022-10-31T14:14:43.633Z,16.20
2022-10-31T14:24:46.925Z,16.10
2022-10-31T14:34:54.411Z,15.90
2022-10-31T14:45:12.196Z,15.80
2022-10-31T14:55:15.339Z,15.70
2022-10-31T15:05:19.503Z,15.70
2022-10-31T15:15:23.539Z,15.80
2022-10-31T15:25:31.272Z,15.70
2022-10-31T15:35:33.204Z,15.60
2022-10-31T15:45:36.676Z,15.40
2022-10-31T15:55:48.732Z,15.40
2022-10-31T16:05:53.893Z,15.30
2022-10-31T16:16:21.372Z,15.20
2022-10-31T16:26:21.644Z,15.10
2022-10-31T16:47:28.666Z,15.00
2022-10-31T16:57:32.094Z,15.10
2022-10-31T17:07:35.395Z,15.10
2022-10-31T17:17:37.401Z,15.20
2022-10-31T17:27:56.127Z,15.20
2022-10-31T17:37:58.124Z,14.80
2022-10-31T17:48:01.368Z,14.50
2022-10-31T17:58:06.156Z,14.40
2022-10-31T18:08:09.475Z,14.40
2022-10-31T18:18:11.386Z,14.30
2022-10-31T18:28:14.673Z,14.40
2022-10-31T18:38:16.649Z,14.30
2022-10-31T18:48:32.600Z,14.40
2022-10-31T18:58:34.650Z,14.50
2022-10-31T19:08:38.862Z,14.60
2022-10-31T19:18:42.360Z,14.70
2022-10-31T19:28:45.642Z,14.80
2022-10-31T19:38:49.003Z,14.80
2022-10-31T19:48:52.563Z,14.90
2022-10-31T19:58:54.534Z,15.00
2022-10-31T20:08:58.326Z,15.00
2022-10-31T20:19:00.300Z,15.10
2022-10-31T20:29:04.219Z,15.20
2022-10-31T20:39:08.953Z,15.30
2022-10-31T20:49:23.321Z,15.30
2022-10-31T20:59:25.252Z,15.30
2022-10-31T21:09:28.634Z,15.20
2022-10-31T21:19:30.629Z,15.30
2022-10-31T21:29:33.918Z,15.30
2022-10-31T21:39:35.840Z,15.20
2022-10-31T21:49:39.229Z,15.10
2022-10-31T21:59:42.468Z,14.90
2022-10-31T22:09:45.916Z,14.90
2022-10-31T22:19:47.852Z,15.00
2022-10-31T22:29:56.285Z,14.90
2022-10-31T22:39:58.628Z,14.90
2022-10-31T22:50:01.942Z,14.80
2022-10-31T23:00:05.280Z,14.60
2022-10-31T23:10:09.379Z,14.50
2022-10-31T23:20:11.274Z,14.40
2022-10-31T23:30:14.586Z,14.10
2022-10-31T23:40:16.753Z,13.70
2022-10-31T23:50:20.047Z,13.60
